Time;durP1;ratioP1;P1;durP2;ratioP2;P2;SDS_P1;SDS_P2;PMS_P1;PMS_P2;Temp;Humidity;BMP_temperature;BMP_pressure;BME280_temperature;BME280_humidity;BME280_pressure;Samples;Min_cycle;Max_cycle;Signal;HPM_P1;HPM_P2
2022/12/02 00:01:45;;;;;;;11.83;10.40;;;15.50;62.40;16.40;101620.00;;;;5071309;28;20638;-44
2022/12/02 00:04:22;;;;;;;12.73;10.63;;;15.40;62.40;16.40;101616.00;;;;5071495;28;20545;-45
2022/12/02 00:06:49;;;;;;;12.97;10.40;;;15.40;62.30;16.40;101615.00;;;;5042990;28;20282;-45
2022/12/02 00:09:31;;;;;;;12.13;10.70;;;15.50;62.50;16.40;101624.00;;;;5051357;28;20182;-45
2022/12/02 00:11:58;;;;;;;11.00;9.90;;;15.40;62.40;16.30;101623.00;;;;5034059;28;20232;-46
2022/12/02 00:14:29;;;;;;;11.13;10.03;;;15.40;62.50;16.30;101625.00;;;;5050838;28;20197;-44
2022/12/02 00:16:55;;;;;;;11.43;10.23;;;15.40;62.50;16.30;101626.00;;;;5051049;28;20622;-44
2022/12/02 00:19:21;;;;;;;10.93;9.73;;;15.40;62.50;16.30;101608.00;;;;5050936;28;20162;-44
2022/12/02 00:21:48;;;;;;;10.77;9.67;;;15.30;62.40;16.30;101609.00;;;;5051084;28;20257;-44
2022/12/02 00:24:15;;;;;;;11.00;9.90;;;15.30;62.50;16.30;101600.00;;;;5051236;28;20209;-44
2022/12/02 00:26:42;;;;;;;11.17;10.00;;;15.30;62.50;16.30;101600.00;;;;5033201;28;20304;-44
2022/12/02 00:29:07;;;;;;;10.97;9.77;;;15.30;62.40;16.30;101599.00;;;;5050818;28;20266;-44
2022/12/02 00:31:33;;;;;;;10.63;9.53;;;15.30;62.40;16.30;101590.00;;;;5050491;28;20174;-44
2022/12/02 00:33:59;;;;;;;11.17;9.00;;;15.30;62.50;16.30;101587.00;;;;5050525;28;20210;-44
2022/12/02 00:36:26;;;;;;;9.87;8.87;;;15.30;62.50;15.70;101602.00;;;;5032587;28;20194;-44
2022/12/02 00:38:53;;;;;;;11.43;9.40;;;15.20;62.40;16.30;101592.00;;;;5050704;28;20700;-44
2022/12/02 00:41:18;;;;;;;9.73;8.73;;;15.20;62.40;16.30;101586.00;;;;5050292;28;20468;-44
2022/12/02 00:46:31;;;;;;;9.90;8.90;;;15.20;62.40;16.20;101598.00;;;;5050857;28;20670;-43
2022/12/02 00:49:11;;;;;;;9.90;8.90;;;15.20;62.30;16.20;101592.00;;;;5050543;28;20205;-45
2022/12/02 00:51:37;;;;;;;9.73;8.73;;;15.20;62.40;16.20;101592.00;;;;5050008;28;20186;-44
2022/12/02 00:54:03;;;;;;;9.50;8.50;;;15.20;62.30;16.20;101573.00;;;;5050243;28;20213;-45
2022/12/02 00:56:29;;;;;;;9.90;8.90;;;15.20;62.30;16.20;101577.00;;;;5050142;28;20198;-44
2022/12/02 00:58:55;;;;;;;9.47;8.50;;;15.10;62.30;16.20;101573.00;;;;5049770;28;20220;-45
2022/12/02 01:01:20;;;;;;;9.57;8.57;;;15.10;62.30;16.20;101572.00;;;;5049768;28;20181;-44
2022/12/02 01:03:46;;;;;;;9.23;8.33;;;15.10;62.20;16.20;101575.00;;;;5032262;28;20274;-44
2022/12/02 01:06:13;;;;;;;9.27;8.37;;;15.10;62.30;16.20;101568.00;;;;5050110;28;20741;-46
2022/12/02 01:08:38;;;;;;;9.40;8.50;;;15.10;62.40;16.20;101573.00;;;;5050166;28;20650;-45
2022/12/02 01:11:04;;;;;;;9.67;8.67;;;15.10;62.40;16.10;101571.00;;;;5050453;28;20232;-45
2022/12/02 01:13:30;;;;;;;9.10;8.20;;;15.00;62.30;16.10;101572.00;;;;5049831;28;20328;-45
2022/12/02 01:15:56;;;;;;;9.70;8.80;;;15.00;62.30;16.10;101561.00;;;;5050808;28;20185;-44
2022/12/02 01:18:21;;;;;;;9.30;8.33;;;15.00;62.30;16.10;101571.00;;;;5034503;28;20185;-45
2022/12/02 01:20:47;;;;;;;9.20;8.30;;;15.00;62.30;16.10;101569.00;;;;5050804;28;20702;-44
2022/12/02 01:23:13;;;;;;;8.50;7.70;;;15.00;63.10;16.10;101567.00;;;;5049890;28;20255;-44
2022/12/02 01:25:39;;;;;;;9.33;8.43;;;15.00;62.30;16.10;101570.00;;;;5049704;28;20228;-43
2022/12/02 01:28:04;;;;;;;9.50;8.60;;;15.00;62.30;16.10;101545.00;;;;5031851;28;20194;-44
2022/12/02 01:30:30;;;;;;;8.90;8.07;;;15.00;62.20;16.00;101534.00;;;;5049865;28;20193;-44
2022/12/02 01:32:56;;;;;;;9.50;8.60;;;14.90;62.30;16.00;101570.00;;;;5049649;28;20344;-44
2022/12/02 01:35:22;;;;;;;9.10;8.20;;;14.90;62.30;16.00;101555.00;;;;5049579;28;20224;-43
2022/12/02 01:37:47;;;;;;;9.17;8.27;;;14.90;62.20;16.00;101561.00;;;;5049661;28;20194;-44
2022/12/02 01:40:13;;;;;;;9.77;8.77;;;14.90;62.30;16.00;101561.00;;;;5049631;28;20207;-44
2022/12/02 01:42:39;;;;;;;9.57;8.60;;;14.90;62.40;16.00;101559.00;;;;5031604;28;20171;-45
2022/12/02 01:45:06;;;;;;;9.83;8.83;;;14.90;62.30;16.00;101558.00;;;;5031409;28;20639;-44
2022/12/02 01:47:32;;;;;;;10.63;9.53;;;14.90;62.50;16.00;101563.00;;;;5031311;28;20571;-45
2022/12/02 01:49:57;;;;;;;10.90;9.80;;;14.80;61.90;16.00;101557.00;;;;5031306;28;20174;-44
2022/12/02 01:52:23;;;;;;;12.53;11.23;;;14.80;61.30;15.90;101555.00;;;;5048874;28;20170;-44
2022/12/02 01:54:49;;;;;;;12.87;11.57;;;14.80;60.70;15.90;101554.00;;;;5014935;28;20281;-44
2022/12/02 01:57:24;;;;;;;13.67;12.27;;;14.70;60.80;15.90;101558.00;;;;5049088;28;20283;-44
2022/12/02 01:59:49;;;;;;;15.20;12.97;;;14.70;60.70;15.80;101551.00;;;;5031124;28;20607;-44
2022/12/02 02:02:31;;;;;;;12.87;11.57;;;14.70;60.00;15.80;101550.00;;;;5031916;28;20170;-43
2022/12/02 02:05:02;;;;;;;13.13;11.73;;;14.60;59.80;15.80;101548.00;;;;5031695;28;20267;-43
2022/12/02 02:07:28;;;;;;;13.50;12.10;;;14.70;60.10;15.80;101545.00;;;;5032001;28;20316;-44
2022/12/02 02:09:54;;;;;;;13.53;12.10;;;14.70;59.90;15.80;101558.00;;;;5031181;28;20214;-44
2022/12/02 02:12:20;;;;;;;15.70;12.93;;;14.70;59.70;15.80;101564.00;;;;5030825;28;20653;-44
2022/12/02 02:14:46;;;;;;;15.13;13.27;;;14.70;59.40;15.80;101557.00;;;;5030966;28;20636;-45
2022/12/02 02:17:11;;;;;;;15.50;12.90;;;14.80;58.90;15.90;101539.00;;;;5031071;28;20297;-44
2022/12/02 02:19:37;;;;;;;14.03;12.13;;;14.80;58.80;15.90;101554.00;;;;5030809;28;20193;-45
2022/12/02 02:22:15;;;;;;;14.27;12.43;;;14.90;58.80;15.90;101538.00;;;;5030924;28;20619;-45
2022/12/02 02:24:41;;;;;;;14.50;11.90;;;15.00;58.80;15.90;101545.00;;;;5031285;28;20166;-45
2022/12/02 02:27:06;;;;;;;13.70;11.60;;;15.00;58.80;15.90;101543.00;;;;5048390;28;20193;-43
2022/12/02 02:29:32;;;;;;;12.50;10.87;;;15.00;58.90;15.90;101546.00;;;;5048567;28;20549;-44
2022/12/02 02:31:58;;;;;;;13.37;11.60;;;15.00;59.00;15.90;101539.00;;;;5014215;28;20208;-45
2022/12/02 02:34:24;;;;;;;13.57;10.90;;;15.00;58.90;15.90;101527.00;;;;5030593;28;20248;-44
2022/12/02 02:36:49;;;;;;;12.70;10.77;;;15.00;59.00;15.90;101536.00;;;;5030998;28;20273;-45
2022/12/02 02:39:15;;;;;;;12.03;10.73;;;15.00;59.20;16.00;101523.00;;;;5030982;28;20602;-44
2022/12/02 02:41:41;;;;;;;12.73;11.30;;;15.10;59.40;15.90;101526.00;;;;5030598;28;20520;-45
2022/12/02 02:44:07;;;;;;;12.57;9.93;;;15.00;59.30;15.90;101525.00;;;;5048089;28;20522;-44
2022/12/02 02:46:32;;;;;;;12.70;10.10;;;15.00;59.50;15.90;101529.00;;;;5048213;28;20209;-43
2022/12/02 02:48:58;;;;;;;12.50;10.40;;;15.00;59.60;15.90;101525.00;;;;5030631;28;20186;-44
2022/12/02 02:51:24;;;;;;;12.20;10.43;;;15.00;59.60;15.90;101528.00;;;;5048221;28;20174;-45
2022/12/02 02:53:50;;;;;;;11.13;10.03;;;15.00;59.60;15.90;101513.00;;;;5048058;28;20285;-44
2022/12/02 02:56:15;;;;;;;11.30;9.60;;;15.00;59.70;15.90;101517.00;;;;5013754;28;20204;-45
2022/12/02 02:58:41;;;;;;;11.37;10.20;;;15.00;59.70;15.90;101512.00;;;;5030285;28;20170;-44
2022/12/02 03:01:20;;;;;;;11.60;10.37;;;14.90;59.60;15.90;101512.00;;;;5047824;28;20680;-44
2022/12/02 03:03:53;;;;;;;12.30;10.47;;;14.90;59.70;15.90;101506.00;;;;5030790;28;20170;-45
2022/12/02 03:06:18;;;;;;;11.27;10.17;;;14.90;59.90;15.90;101500.00;;;;5030659;28;20590;-45
2022/12/02 03:08:46;;;;;;;11.93;10.63;;;14.90;60.00;15.90;101505.00;;;;5030324;28;20174;-44
2022/12/02 03:11:12;;;;;;;11.27;10.07;;;15.00;60.00;15.90;101506.00;;;;5030682;28;20572;-44
2022/12/02 03:13:38;;;;;;;11.13;9.93;;;15.00;59.90;15.90;101497.00;;;;5013674;28;20277;-44
2022/12/02 03:16:06;;;;;;;10.83;9.73;;;15.00;60.00;15.90;101502.00;;;;5013691;28;20198;-44
2022/12/02 03:18:32;;;;;;;9.87;8.87;;;15.00;60.00;15.90;101508.00;;;;5030181;28;20162;-44
2022/12/02 03:20:58;;;;;;;11.00;9.90;;;15.00;60.10;15.90;101499.00;;;;5047998;28;20232;-44
2022/12/02 03:23:23;;;;;;;11.20;9.93;;;15.00;60.10;15.90;101507.00;;;;5029925;28;20223;-44
2022/12/02 03:25:52;;;;;;;11.07;9.83;;;15.00;60.10;15.90;101502.00;;;;5048185;28;20706;-44
2022/12/02 03:28:18;;;;;;;10.77;9.67;;;15.00;60.20;15.90;101502.00;;;;5047938;28;20178;-44
2022/12/02 03:30:43;;;;;;;10.90;9.80;;;15.00;60.20;15.90;101503.00;;;;5048897;28;20178;-44
2022/12/02 03:33:09;;;;;;;11.60;9.67;;;14.90;60.10;15.90;101498.00;;;;5033520;28;20240;-44
2022/12/02 03:35:35;;;;;;;10.67;9.57;;;14.90;60.10;15.90;101496.00;;;;5034084;28;20643;-43
2022/12/02 03:38:00;;;;;;;11.00;9.80;;;15.00;60.20;15.90;101494.00;;;;5051722;28;20193;-44
2022/12/02 03:40:26;;;;;;;10.83;9.73;;;14.90;60.20;15.60;101493.00;;;;5052477;28;20177;-44
2022/12/02 03:42:52;;;;;;;10.60;9.50;;;14.90;60.20;15.80;101483.00;;;;5033870;28;20393;-44
2022/12/02 03:45:18;;;;;;;10.10;9.10;;;14.90;60.20;15.90;101471.00;;;;5017739;28;20597;-44
2022/12/02 03:47:43;;;;;;;10.93;9.83;;;14.90;60.20;15.90;101480.00;;;;5034621;28;20194;-43
2022/12/02 03:50:10;;;;;;;10.80;9.40;;;14.90;60.20;15.90;101469.00;;;;5051896;28;20174;-44
2022/12/02 03:52:36;;;;;;;10.40;9.30;;;15.00;60.30;15.90;101476.00;;;;5017498;28;20576;-43
2022/12/02 03:55:01;;;;;;;10.50;9.40;;;15.00;60.30;15.90;101477.00;;;;5033861;28;20253;-44
2022/12/02 03:57:27;;;;;;;10.37;9.20;;;15.00;60.30;15.90;101462.00;;;;5034990;28;20198;-44
2022/12/02 03:59:53;;;;;;;10.37;9.23;;;15.00;60.30;15.90;101472.00;;;;5020030;28;20186;-43
2022/12/02 04:02:19;;;;;;;10.43;9.37;;;15.00;60.30;15.90;101471.00;;;;5051152;28;20170;-46
2022/12/02 04:04:45;;;;;;;11.33;9.90;;;15.00;60.30;15.90;101468.00;;;;5051365;28;20185;-44
2022/12/02 04:07:10;;;;;;;10.80;9.70;;;15.00;60.30;15.90;101463.00;;;;5051030;28;20581;-45
2022/12/02 04:09:36;;;;;;;11.10;9.57;;;15.00;60.30;15.80;101457.00;;;;5051346;28;20174;-44
2022/12/02 04:12:02;;;;;;;10.57;9.47;;;15.00;60.40;15.80;101453.00;;;;5051095;28;20174;-45
2022/12/02 04:14:27;;;;;;;10.50;9.40;;;15.00;60.50;15.80;101459.00;;;;5051119;28;20194;-44
2022/12/02 04:16:53;;;;;;;11.10;9.70;;;15.00;60.50;15.80;101467.00;;;;5050932;28;20210;-43
2022/12/02 04:19:19;;;;;;;11.07;9.97;;;14.90;60.30;15.80;101454.00;;;;5050762;28;20174;-43
2022/12/02 04:21:45;;;;;;;11.07;9.63;;;14.90;60.50;15.80;101459.00;;;;5050760;28;20183;-43
2022/12/02 04:24:10;;;;;;;10.00;9.00;;;14.90;60.60;15.80;101450.00;;;;5051017;28;20655;-45
2022/12/02 04:26:36;;;;;;;10.27;9.17;;;14.90;60.60;15.80;101449.00;;;;5051764;28;20232;-44
2022/12/02 04:29:02;;;;;;;12.63;9.20;;;14.90;60.70;15.80;101452.00;;;;5053232;28;20178;-44
2022/12/02 04:31:27;;;;;;;10.63;9.50;;;14.90;61.60;15.80;101440.00;;;;5070954;28;20607;-44
2022/12/02 04:33:53;;;;;;;12.10;9.87;;;14.90;61.30;15.80;101450.00;;;;5070843;28;20371;-44
2022/12/02 04:36:19;;;;;;;10.93;9.47;;;14.90;61.20;15.80;101441.00;;;;5054706;28;20237;-44
2022/12/02 04:38:45;;;;;;;13.57;10.00;;;14.90;61.30;15.80;101448.00;;;;5050898;28;20174;-43
2022/12/02 04:41:10;;;;;;;12.27;9.57;;;14.90;61.30;15.80;101458.00;;;;5050529;28;20194;-44
2022/12/02 04:43:36;;;;;;;11.37;9.87;;;14.90;62.10;15.80;101448.00;;;;5049726;28;20202;-43
2022/12/02 04:46:02;;;;;;;12.77;11.30;;;14.90;61.00;15.80;101445.00;;;;5051384;28;20178;-44
2022/12/02 04:48:27;;;;;;;12.40;11.10;;;14.90;60.70;15.80;101452.00;;;;5051319;28;20174;-45
2022/12/02 04:50:53;;;;;;;14.13;11.30;;;14.90;60.50;15.80;101441.00;;;;5051074;28;20178;-43
2022/12/02 04:53:19;;;;;;;18.07;13.40;;;14.80;60.20;15.80;101439.00;;;;5050820;28;20201;-44
2022/12/02 04:55:45;;;;;;;15.20;12.13;;;14.80;59.70;15.80;101442.00;;;;5051147;28;20198;-45
2022/12/02 04:58:12;;;;;;;17.37;13.53;;;14.80;59.60;15.80;101442.00;;;;5050630;28;20198;-44
2022/12/02 05:00:37;;;;;;;14.90;13.30;;;14.70;59.40;15.80;101435.00;;;;5050942;28;20249;-44
2022/12/02 05:03:03;;;;;;;17.70;14.27;;;14.70;59.40;15.80;101431.00;;;;5050836;28;20521;-44
2022/12/02 05:05:29;;;;;;;17.37;13.83;;;14.70;59.10;15.80;101434.00;;;;5051147;28;20190;-44
2022/12/02 05:07:54;;;;;;;20.03;15.93;;;14.70;58.70;15.80;101430.00;;;;5051205;28;20685;-44
2022/12/02 05:10:20;;;;;;;19.73;15.27;;;14.60;58.00;15.70;101422.00;;;;5050833;28;20563;-44
2022/12/02 05:12:46;;;;;;;19.97;15.50;;;14.70;58.10;15.70;101419.00;;;;5050782;28;20201;-44
2022/12/02 05:15:12;;;;;;;19.00;14.83;;;14.60;57.60;15.70;101409.00;;;;5050965;28;20198;-45
2022/12/02 05:17:38;;;;;;;18.60;15.50;;;14.70;57.70;15.70;101420.00;;;;5050854;28;20217;-43
2022/12/02 05:20:05;;;;;;;18.67;15.90;;;14.70;57.30;15.70;101417.00;;;;5050908;28;20197;-43
2022/12/02 05:22:30;;;;;;;21.17;15.60;;;14.70;57.50;15.70;101411.00;;;;5061756;28;20185;-44
2022/12/02 05:24:56;;;;;;;18.23;14.27;;;14.70;57.30;15.70;101412.00;;;;5072192;28;20609;-44
2022/12/02 05:27:22;;;;;;;19.53;14.87;;;14.80;57.40;15.70;101418.00;;;;5072155;28;20687;-44
2022/12/02 05:29:48;;;;;;;18.60;14.33;;;14.80;57.40;15.70;101418.00;;;;5071205;28;20209;-44
2022/12/02 05:32:13;;;;;;;16.80;13.43;;;14.80;57.40;15.70;101409.00;;;;5070126;28;20170;-44
2022/12/02 05:34:39;;;;;;;16.80;14.00;;;14.80;57.70;15.60;101412.00;;;;5069741;28;20202;-44
2022/12/02 05:37:05;;;;;;;18.20;13.60;;;14.90;58.50;15.80;101400.00;;;;5070344;28;20221;-44
2022/12/02 05:39:30;;;;;;;17.20;12.90;;;14.90;58.10;15.70;101410.00;;;;5070109;28;20173;-45
2022/12/02 05:42:02;;;;;;;20.20;13.07;;;14.90;58.20;15.70;101414.00;;;;5069933;28;20180;-44
2022/12/02 05:44:28;;;;;;;18.67;12.73;;;14.80;58.30;15.70;101416.00;;;;5052079;28;20181;-45
2022/12/02 05:46:58;;;;;;;18.17;12.70;;;14.80;58.40;15.70;101417.00;;;;5069686;28;20189;-44
2022/12/02 05:49:23;;;;;;;21.87;12.80;;;14.80;58.50;15.70;101415.00;;;;5053023;28;20280;-44
2022/12/02 05:51:55;;;;;;;19.77;12.70;;;14.80;58.80;15.70;101413.00;;;;5069613;28;20277;-44
2022/12/02 05:54:21;;;;;;;17.63;12.10;;;14.80;58.80;15.70;101400.00;;;;5068609;28;20201;-44
2022/12/02 05:56:47;;;;;;;17.63;13.23;;;14.80;58.90;15.70;101401.00;;;;5069284;28;20186;-45
2022/12/02 05:59:18;;;;;;;17.87;12.13;;;14.80;59.00;15.70;101407.00;;;;5052232;28;20593;-44
2022/12/02 06:01:49;;;;;;;16.73;11.20;;;14.80;59.20;15.70;101400.00;;;;5069482;28;20249;-45
2022/12/02 06:04:21;;;;;;;15.83;12.40;;;14.80;59.10;15.70;101398.00;;;;5052036;28;20186;-46
2022/12/02 06:06:47;;;;;;;14.83;12.30;;;14.80;59.10;15.70;101400.00;;;;5052191;28;20197;-45
2022/12/02 06:09:17;;;;;;;16.83;11.40;;;14.80;59.80;15.70;101393.00;;;;5035413;28;20212;-43
2022/12/02 06:11:44;;;;;;;15.33;11.50;;;14.80;59.20;15.70;101401.00;;;;5052111;28;20595;-45
2022/12/02 06:14:18;;;;;;;15.33;11.50;;;14.80;59.20;15.70;101404.00;;;;5035733;28;20221;-44
2022/12/02 06:16:48;;;;;;;13.90;11.40;;;14.80;59.20;15.70;101399.00;;;;5068781;28;20205;-45
2022/12/02 06:19:24;;;;;;;14.87;11.60;;;14.80;59.20;15.40;101393.00;;;;5069659;28;20166;-44
2022/12/02 06:21:50;;;;;;;13.57;11.27;;;14.80;59.30;15.70;101390.00;;;;5034748;28;20588;-45
2022/12/02 06:24:16;;;;;;;16.10;11.80;;;14.80;59.30;15.70;101396.00;;;;5053267;28;20177;-44
2022/12/02 06:26:41;;;;;;;17.10;11.10;;;14.80;59.20;15.70;101409.00;;;;5035153;28;20190;-44
2022/12/02 06:29:10;;;;;;;15.17;11.03;;;14.80;59.40;15.70;101404.00;;;;5069058;28;20182;-44
2022/12/02 06:31:38;;;;;;;13.60;10.93;;;14.90;59.60;15.70;101398.00;;;;5034836;28;20178;-44
2022/12/02 06:34:29;;;;;;;11.67;9.60;;;14.80;59.60;15.70;101396.00;;;;5067335;28;20196;-43
2022/12/02 06:36:57;;;;;;;12.80;9.90;;;14.90;59.70;15.70;101386.00;;;;5051145;28;20215;-44
2022/12/02 06:39:23;;;;;;;12.70;10.07;;;14.90;59.80;15.80;101404.00;;;;5054230;28;20272;-43
2022/12/02 06:41:49;;;;;;;12.23;10.03;;;14.90;59.80;15.60;101400.00;;;;5053874;28;20646;-44
2022/12/02 06:47:32;;;;;;;12.50;9.80;;;14.90;60.00;15.80;101396.00;;;;5068699;28;20205;-43
2022/12/02 06:50:31;;;;;;;11.10;9.83;;;14.90;60.00;15.80;101397.00;;;;5030993;28;20276;-44
2022/12/02 06:53:35;;;;;;;11.53;8.83;;;14.90;60.10;15.80;101392.00;;;;5054616;28;20170;-43
2022/12/02 06:56:11;;;;;;;10.03;8.90;;;14.90;60.20;15.70;101395.00;;;;5051226;28;20162;-43
2022/12/02 06:58:46;;;;;;;10.03;8.97;;;14.90;60.30;15.70;101399.00;;;;5068626;28;20623;-44
2022/12/02 07:01:25;;;;;;;12.23;9.63;;;14.90;60.30;15.70;101386.00;;;;5051899;28;20168;-44
2022/12/02 07:04:00;;;;;;;10.13;9.10;;;14.90;60.40;15.70;101389.00;;;;5050727;28;20758;-44
2022/12/02 07:06:27;;;;;;;10.63;9.20;;;14.90;60.50;15.70;101368.00;;;;5067699;28;20315;-44
2022/12/02 07:09:13;;;;;;;11.50;9.10;;;14.80;60.50;15.70;101405.00;;;;5050963;28;20602;-44
2022/12/02 07:11:50;;;;;;;10.90;9.33;;;14.80;60.60;15.70;101394.00;;;;5050804;28;20173;-44
2022/12/02 07:14:35;;;;;;;11.40;8.83;;;14.80;60.70;15.70;101398.00;;;;5068612;28;20783;-44
2022/12/02 07:17:35;;;;;;;10.37;9.23;;;14.80;60.90;15.70;101390.00;;;;5067824;28;20201;-44
2022/12/02 07:20:10;;;;;;;9.43;8.13;;;14.80;61.00;15.70;101404.00;;;;5054654;28;20172;-44
2022/12/02 07:22:42;;;;;;;10.77;8.57;;;14.80;61.00;15.70;101384.00;;;;5068153;28;20164;-44
2022/12/02 07:25:30;;;;;;;10.53;9.43;;;14.80;61.10;15.70;101400.00;;;;5051273;28;20201;-44
2022/12/02 07:27:56;;;;;;;9.80;8.80;;;14.80;61.10;15.70;101395.00;;;;5068363;28;20698;-44
2022/12/02 07:30:29;;;;;;;9.60;8.13;;;14.80;61.10;15.70;101391.00;;;;5068529;28;20193;-44
2022/12/02 07:32:54;;;;;;;10.00;8.87;;;14.80;61.20;15.70;101400.00;;;;5050378;28;20157;-44
2022/12/02 07:35:20;;;;;;;9.77;8.17;;;14.80;61.10;15.70;101396.00;;;;5067965;28;20173;-44
2022/12/02 07:37:46;;;;;;;9.17;8.23;;;14.80;61.10;15.70;101392.00;;;;5068451;28;20233;-44
2022/12/02 07:40:13;;;;;;;9.30;8.40;;;14.90;61.30;15.70;101396.00;;;;5068368;28;20173;-44
2022/12/02 07:42:38;;;;;;;9.87;8.67;;;14.80;61.10;15.70;101381.00;;;;5068448;28;20224;-43
2022/12/02 07:45:05;;;;;;;10.43;8.70;;;14.80;61.10;15.70;101385.00;;;;5068085;28;20177;-44
2022/12/02 07:47:31;;;;;;;10.57;9.03;;;14.80;61.30;15.70;101397.00;;;;5068277;28;20243;-44
2022/12/02 07:49:57;;;;;;;9.60;8.60;;;14.80;61.30;15.70;101394.00;;;;5071595;28;20177;-44
2022/12/02 07:52:23;;;;;;;9.83;8.40;;;14.80;61.30;15.70;101388.00;;;;5069140;28;20173;-44
2022/12/02 07:54:50;;;;;;;9.43;8.43;;;14.80;61.40;15.70;101388.00;;;;5070465;28;20285;-43
2022/12/02 07:57:15;;;;;;;9.87;8.63;;;14.80;61.40;15.70;101386.00;;;;5070062;28;20225;-44
2022/12/02 07:59:41;;;;;;;10.30;9.13;;;14.80;61.40;15.70;101380.00;;;;5069197;28;20646;-45
2022/12/02 08:02:07;;;;;;;10.47;8.57;;;14.90;61.40;15.70;101392.00;;;;5058128;28;20166;-45
2022/12/02 08:04:32;;;;;;;9.43;8.30;;;14.90;61.70;15.70;101391.00;;;;5039032;28;20174;-45
2022/12/02 08:06:58;;;;;;;9.63;8.10;;;14.90;61.50;15.70;101392.00;;;;5065675;28;20193;-43
2022/12/02 08:09:24;;;;;;;9.60;8.60;;;14.90;61.60;15.80;101388.00;;;;5067557;28;20631;-44
2022/12/02 08:11:50;;;;;;;10.47;8.90;;;15.00;61.70;15.80;101375.00;;;;5068098;28;20258;-44
2022/12/02 08:14:15;;;;;;;8.57;7.67;;;15.00;61.70;15.80;101389.00;;;;4984248;28;20261;-44
2022/12/02 08:16:41;;;;;;;9.13;8.03;;;15.10;61.70;15.80;101390.00;;;;5048511;28;20205;-43
2022/12/02 08:19:07;;;;;;;11.50;8.20;;;15.30;61.90;15.90;101384.00;;;;5055939;28;20165;-45
2022/12/02 08:21:33;;;;;;;9.17;7.70;;;15.40;61.70;16.00;101373.00;;;;5071547;28;20180;-44
2022/12/02 08:23:59;;;;;;;10.00;8.00;;;15.60;61.50;16.10;101379.00;;;;5071611;28;20184;-43
2022/12/02 08:26:24;;;;;;;8.67;7.50;;;15.70;61.10;16.20;101376.00;;;;5070312;28;20201;-43
2022/12/02 08:28:50;;;;;;;9.73;7.53;;;15.80;60.90;16.30;101374.00;;;;5071429;28;20174;-43
2022/12/02 08:31:16;;;;;;;8.13;7.10;;;16.00;60.80;16.30;101376.00;;;;5066871;28;20189;-43
2022/12/02 08:33:42;;;;;;;8.77;7.03;;;16.20;60.40;16.50;101376.00;;;;5050859;28;20781;-45
2022/12/02 08:36:08;;;;;;;8.47;7.47;;;16.30;60.30;16.60;101381.00;;;;5051185;28;20170;-44
2022/12/02 08:38:33;;;;;;;8.63;7.73;;;16.50;60.20;16.70;101388.00;;;;5055978;28;20235;-45
2022/12/02 08:40:59;;;;;;;11.83;8.07;;;16.60;60.10;16.80;101380.00;;;;5071142;28;20227;-44
2022/12/02 08:43:25;;;;;;;8.93;7.60;;;16.70;60.30;16.90;101372.00;;;;5071200;28;20600;-44
2022/12/02 08:45:51;;;;;;;8.07;7.27;;;16.80;60.10;17.00;101381.00;;;;5071516;28;20582;-44
2022/12/02 08:48:16;;;;;;;10.83;7.20;;;16.90;60.10;17.10;101379.00;;;;5070419;28;20762;-47
2022/12/02 08:50:42;;;;;;;10.30;6.83;;;16.90;60.00;17.10;101383.00;;;;5071147;28;20177;-43
2022/12/02 08:53:08;;;;;;;10.83;7.57;;;16.90;60.20;17.20;101379.00;;;;5046669;28;20202;-44
2022/12/02 08:55:33;;;;;;;9.27;6.60;;;16.90;60.40;17.20;101377.00;;;;5051151;28;20177;-43
2022/12/02 08:57:59;;;;;;;8.73;7.13;;;16.90;60.50;17.30;101372.00;;;;5051121;28;20194;-44
2022/12/02 09:00:25;;;;;;;9.73;6.70;;;16.90;60.50;17.30;101378.00;;;;5049657;28;20247;-45
2022/12/02 09:02:51;;;;;;;9.13;7.07;;;16.90;60.70;17.30;101230.00;;;;5050438;28;20753;-45
2022/12/02 09:05:16;;;;;;;9.53;6.90;;;16.90;60.70;17.30;101377.00;;;;5050953;28;20220;-45
2022/12/02 09:07:42;;;;;;;9.90;7.37;;;16.90;60.70;17.30;101386.00;;;;5033463;28;20191;-44
2022/12/02 09:10:09;;;;;;;8.87;6.90;;;16.90;60.70;17.40;101377.00;;;;5050860;28;20193;-45
2022/12/02 09:12:34;;;;;;;9.20;7.27;;;16.90;60.70;17.40;101384.00;;;;5050505;28;20253;-44
2022/12/02 09:15:00;;;;;;;8.57;6.63;;;16.80;60.70;17.40;101383.00;;;;5050521;28;20699;-45
2022/12/02 09:17:26;;;;;;;7.80;6.93;;;16.80;60.80;17.40;101375.00;;;;5050850;28;20202;-44
2022/12/02 09:19:52;;;;;;;10.07;7.00;;;16.80;60.80;17.30;101384.00;;;;5053188;28;20193;-44
2022/12/02 09:22:17;;;;;;;9.27;7.53;;;16.80;61.00;17.40;101382.00;;;;5057287;28;20222;-43
2022/12/02 09:24:43;;;;;;;7.57;6.73;;;16.70;61.00;17.40;101379.00;;;;5051714;28;20182;-43
2022/12/02 09:27:09;;;;;;;7.97;7.07;;;16.70;61.00;17.30;101379.00;;;;5032747;28;20213;-43
2022/12/02 09:29:35;;;;;;;7.40;6.60;;;16.80;61.30;17.30;101385.00;;;;5050891;28;20310;-44
2022/12/02 09:32:00;;;;;;;8.10;7.10;;;16.70;61.30;17.30;101378.00;;;;5050564;28;20537;-44
2022/12/02 09:34:26;;;;;;;9.57;7.27;;;16.60;61.30;17.30;101387.00;;;;5050696;28;20198;-44
2022/12/02 09:36:52;;;;;;;8.07;6.93;;;16.70;61.50;17.30;101383.00;;;;5050344;28;20201;-44
2022/12/02 09:39:17;;;;;;;8.97;7.20;;;16.60;61.30;17.30;101315.00;;;;5050477;28;20184;-44
2022/12/02 09:41:43;;;;;;;7.47;6.63;;;16.70;61.30;17.30;101373.00;;;;5050004;28;20285;-44
2022/12/02 09:44:09;;;;;;;7.57;6.57;;;16.70;61.30;17.30;101376.00;;;;5032787;28;20490;-45
2022/12/02 09:46:35;;;;;;;7.20;6.50;;;16.70;61.30;17.30;101372.00;;;;5050180;28;20191;-45
2022/12/02 09:49:00;;;;;;;8.30;6.80;;;16.60;61.30;17.30;101374.00;;;;5015969;28;20232;-45
2022/12/02 09:51:26;;;;;;;8.30;7.30;;;16.70;61.50;17.30;101370.00;;;;5049981;28;20204;-45
2022/12/02 09:53:52;;;;;;;7.90;7.10;;;16.60;61.40;17.30;101372.00;;;;5032436;28;20647;-45
2022/12/02 09:56:19;;;;;;;7.40;6.60;;;16.60;61.50;17.30;101372.00;;;;5050141;28;20672;-45
2022/12/02 09:58:46;;;;;;;7.73;6.67;;;16.60;61.50;17.30;101366.00;;;;5032270;28;20647;-44
2022/12/02 10:01:12;;;;;;;8.07;7.00;;;16.60;61.40;17.30;101365.00;;;;5032418;28;20535;-45
2022/12/02 10:03:38;;;;;;;7.53;6.47;;;16.70;61.30;17.30;101377.00;;;;5032126;28;20639;-44
2022/12/02 10:06:07;;;;;;;7.43;6.63;;;16.70;61.30;17.30;101368.00;;;;5031959;28;20228;-44
2022/12/02 10:08:33;;;;;;;7.13;6.43;;;16.70;61.40;17.30;101363.00;;;;5031942;28;20228;-44
2022/12/02 10:10:59;;;;;;;7.10;6.40;;;16.60;61.40;17.30;101364.00;;;;5031866;28;20182;-44
2022/12/02 10:13:25;;;;;;;7.73;6.93;;;16.60;61.40;17.30;101367.00;;;;5032979;28;20345;-45
2022/12/02 10:15:51;;;;;;;7.37;6.57;;;16.70;61.60;17.30;101367.00;;;;5034415;28;20171;-45
2022/12/02 10:18:19;;;;;;;7.17;6.47;;;16.70;61.60;17.30;101371.00;;;;5033298;28;20187;-43
2022/12/02 10:20:45;;;;;;;7.40;6.60;;;16.60;61.50;17.30;101375.00;;;;5032338;28;20225;-43
2022/12/02 10:23:17;;;;;;;7.50;6.40;;;16.60;61.40;17.30;101373.00;;;;5049552;28;20258;-45
2022/12/02 10:25:48;;;;;;;7.40;6.70;;;16.70;61.40;17.30;101368.00;;;;5049963;28;20304;-44
2022/12/02 10:28:23;;;;;;;6.63;5.97;;;16.70;61.40;17.30;101364.00;;;;5049641;28;20441;-44
2022/12/02 10:30:54;;;;;;;7.80;6.80;;;16.70;61.40;17.30;101365.00;;;;5049327;28;20160;-44
2022/12/02 10:33:27;;;;;;;7.07;6.33;;;16.70;61.50;17.30;101357.00;;;;5049306;28;20194;-44
2022/12/02 10:35:53;;;;;;;8.00;6.40;;;16.70;61.50;17.30;101361.00;;;;5049186;28;20175;-46
2022/12/02 10:38:43;;;;;;;6.93;6.13;;;16.60;61.50;17.30;101361.00;;;;5031871;28;20171;-45
2022/12/02 10:41:23;;;;;;;7.00;6.30;;;16.70;61.60;17.30;101365.00;;;;5032222;28;20623;-43
2022/12/02 10:43:51;;;;;;;7.20;6.50;;;16.60;61.60;17.30;101359.00;;;;5050079;28;20192;-43
2022/12/02 10:46:18;;;;;;;7.17;6.47;;;16.60;61.60;17.30;101358.00;;;;5049529;28;20194;-43
2022/12/02 10:48:44;;;;;;;9.80;6.70;;;16.60;61.60;17.30;101279.00;;;;5049252;28;20224;-44